sensor_id;sensor_type;location;lat;lon;timestamp;P1;durP1;ratioP1;P2;durP2;ratioP2
27566;SDS011;15006;48.584;9.186;2022-12-29T00:00:04;18.58;;;11.73;;
27566;SDS011;15006;48.584;9.186;2022-12-29T00:02:34;9.68;;;7.53;;
27566;SDS011;15006;48.584;9.186;2022-12-29T00:05:03;11.85;;;9.88;;
27566;SDS011;15006;48.584;9.186;2022-12-29T00:07:32;14.45;;;10.43;;
27566;SDS011;15006;48.584;9.186;2022-12-29T00:10:00;7.72;;;6.93;;
27566;SDS011;15006;48.584;9.186;2022-12-29T00:12:29;5.15;;;4.65;;
27566;SDS011;15006;48.584;9.186;2022-12-29T00:15:15;4.53;;;4.13;;
27566;SDS011;15006;48.584;9.186;2022-12-29T00:18:02;3.50;;;3.13;;
27566;SDS011;15006;48.584;9.186;2022-12-29T00:20:33;2.88;;;2.60;;
27566;SDS011;15006;48.584;9.186;2022-12-29T00:23:21;3.13;;;2.88;;
27566;SDS011;15006;48.584;9.186;2022-12-29T00:26:12;3.45;;;2.80;;
27566;SDS011;15006;48.584;9.186;2022-12-29T00:29:03;3.38;;;2.95;;
27566;SDS011;15006;48.584;9.186;2022-12-29T00:31:49;4.63;;;3.65;;
27566;SDS011;15006;48.584;9.186;2022-12-29T00:34:35;4.65;;;3.45;;
27566;SDS011;15006;48.584;9.186;2022-12-29T00:37:20;2.70;;;2.50;;
27566;SDS011;15006;48.584;9.186;2022-12-29T00:40:06;3.22;;;2.60;;
27566;SDS011;15006;48.584;9.186;2022-12-29T00:42:51;2.20;;;2.10;;
27566;SDS011;15006;48.584;9.186;2022-12-29T00:45:36;4.25;;;2.10;;
27566;SDS011;15006;48.584;9.186;2022-12-29T00:48:03;3.22;;;2.15;;
27566;SDS011;15006;48.584;9.186;2022-12-29T00:50:30;2.85;;;2.63;;
27566;SDS011;15006;48.584;9.186;2022-12-29T00:52:56;2.60;;;2.40;;
27566;SDS011;15006;48.584;9.186;2022-12-29T00:55:22;2.95;;;2.75;;
27566;SDS011;15006;48.584;9.186;2022-12-29T00:57:48;2.83;;;2.47;;
27566;SDS011;15006;48.584;9.186;2022-12-29T01:00:14;2.53;;;2.40;;
27566;SDS011;15006;48.584;9.186;2022-12-29T01:02:40;2.63;;;2.42;;
27566;SDS011;15006;48.584;9.186;2022-12-29T01:05:06;3.80;;;2.92;;
27566;SDS011;15006;48.584;9.186;2022-12-29T01:07:32;3.80;;;2.90;;
27566;SDS011;15006;48.584;9.186;2022-12-29T01:09:58;2.97;;;2.63;;
27566;SDS011;15006;48.584;9.186;2022-12-29T01:12:36;2.83;;;2.58;;
27566;SDS011;15006;48.584;9.186;2022-12-29T01:15:06;3.75;;;2.30;;
27566;SDS011;15006;48.584;9.186;2022-12-29T01:17:34;2.50;;;2.40;;
27566;SDS011;15006;48.584;9.186;2022-12-29T01:20:01;2.50;;;2.28;;
27566;SDS011;15006;48.584;9.186;2022-12-29T01:22:28;2.50;;;2.00;;
27566;SDS011;15006;48.584;9.186;2022-12-29T01:24:54;2.30;;;2.10;;
27566;SDS011;15006;48.584;9.186;2022-12-29T01:27:20;2.78;;;2.58;;
27566;SDS011;15006;48.584;9.186;2022-12-29T01:29:46;2.55;;;2.40;;
27566;SDS011;15006;48.584;9.186;2022-12-29T01:32:12;3.13;;;2.55;;
27566;SDS011;15006;48.584;9.186;2022-12-29T01:34:38;3.20;;;3.00;;
27566;SDS011;15006;48.584;9.186;2022-12-29T01:37:03;2.88;;;2.60;;
27566;SDS011;15006;48.584;9.186;2022-12-29T01:39:29;2.58;;;2.40;;
27566;SDS011;15006;48.584;9.186;2022-12-29T01:41:55;2.58;;;2.40;;
27566;SDS011;15006;48.584;9.186;2022-12-29T01:47:32;2.20;;;2.10;;
27566;SDS011;15006;48.584;9.186;2022-12-29T01:50:11;2.47;;;2.00;;
27566;SDS011;15006;48.584;9.186;2022-12-29T01:53:02;2.13;;;1.80;;
27566;SDS011;15006;48.584;9.186;2022-12-29T01:55:49;1.40;;;1.30;;
27566;SDS011;15006;48.584;9.186;2022-12-29T01:58:20;1.63;;;1.38;;
27566;SDS011;15006;48.584;9.186;2022-12-29T02:00:50;1.58;;;1.40;;
27566;SDS011;15006;48.584;9.186;2022-12-29T02:03:17;4.10;;;1.70;;
27566;SDS011;15006;48.584;9.186;2022-12-29T02:08:32;3.65;;;1.30;;
27566;SDS011;15006;48.584;9.186;2022-12-29T02:10:58;1.40;;;1.30;;
27566;SDS011;15006;48.584;9.186;2022-12-29T02:13:27;2.40;;;1.48;;
27566;SDS011;15006;48.584;9.186;2022-12-29T02:16:07;4.32;;;1.20;;
27566;SDS011;15006;48.584;9.186;2022-12-29T02:19:39;3.25;;;1.23;;
27566;SDS011;15006;48.584;9.186;2022-12-29T02:22:34;0.90;;;0.90;;
27566;SDS011;15006;48.584;9.186;2022-12-29T02:37:00;1.42;;;1.00;;
27566;SDS011;15006;48.584;9.186;2022-12-29T02:42:09;2.78;;;1.23;;
27566;SDS011;15006;48.584;9.186;2022-12-29T02:45:51;1.30;;;0.98;;
27566;SDS011;15006;48.584;9.186;2022-12-29T02:54:36;1.25;;;0.90;;
27566;SDS011;15006;48.584;9.186;2022-12-29T02:57:12;2.33;;;1.00;;
27566;SDS011;15006;48.584;9.186;2022-12-29T02:59:41;1.55;;;0.95;;
27566;SDS011;15006;48.584;9.186;2022-12-29T03:10:25;1.95;;;1.10;;
27566;SDS011;15006;48.584;9.186;2022-12-29T03:18:21;1.88;;;0.93;;
27566;SDS011;15006;48.584;9.186;2022-12-29T03:20:26;2.60;;;1.10;;
27566;SDS011;15006;48.584;9.186;2022-12-29T03:23:04;1.50;;;1.00;;
27566;SDS011;15006;48.584;9.186;2022-12-29T03:25:35;2.55;;;1.02;;
27566;SDS011;15006;48.584;9.186;2022-12-29T03:28:08;1.13;;;0.70;;
27566;SDS011;15006;48.584;9.186;2022-12-29T03:30:39;0.90;;;0.90;;
27566;SDS011;15006;48.584;9.186;2022-12-29T03:33:07;1.50;;;1.08;;
27566;SDS011;15006;48.584;9.186;2022-12-29T03:38:08;1.48;;;0.90;;
27566;SDS011;15006;48.584;9.186;2022-12-29T03:40:50;4.88;;;1.20;;
27566;SDS011;15006;48.584;9.186;2022-12-29T03:43:24;1.40;;;1.00;;
27566;SDS011;15006;48.584;9.186;2022-12-29T03:45:51;2.30;;;1.17;;
27566;SDS011;15006;48.584;9.186;2022-12-29T03:48:17;1.42;;;0.80;;
27566;SDS011;15006;48.584;9.186;2022-12-29T03:50:42;0.85;;;0.85;;
27566;SDS011;15006;48.584;9.186;2022-12-29T03:53:08;1.20;;;1.00;;
27566;SDS011;15006;48.584;9.186;2022-12-29T03:55:34;1.42;;;0.90;;
27566;SDS011;15006;48.584;9.186;2022-12-29T03:58:00;2.35;;;1.25;;
27566;SDS011;15006;48.584;9.186;2022-12-29T04:00:27;2.65;;;1.10;;
27566;SDS011;15006;48.584;9.186;2022-12-29T04:02:53;0.93;;;0.93;;
27566;SDS011;15006;48.584;9.186;2022-12-29T04:05:20;1.10;;;1.00;;
27566;SDS011;15006;48.584;9.186;2022-12-29T04:07:46;1.02;;;1.00;;
27566;SDS011;15006;48.584;9.186;2022-12-29T04:10:12;1.90;;;1.13;;
27566;SDS011;15006;48.584;9.186;2022-12-29T04:12:38;1.10;;;1.00;;
27566;SDS011;15006;48.584;9.186;2022-12-29T04:15:05;1.17;;;1.08;;
27566;SDS011;15006;48.584;9.186;2022-12-29T04:17:32;3.47;;;1.23;;
27566;SDS011;15006;48.584;9.186;2022-12-29T04:19:58;3.13;;;1.00;;
27566;SDS011;15006;48.584;9.186;2022-12-29T04:22:44;5.45;;;1.10;;
27566;SDS011;15006;48.584;9.186;2022-12-29T04:25:10;3.05;;;1.05;;
27566;SDS011;15006;48.584;9.186;2022-12-29T04:27:36;1.65;;;0.90;;
27566;SDS011;15006;48.584;9.186;2022-12-29T04:30:02;2.30;;;1.00;;
27566;SDS011;15006;48.584;9.186;2022-12-29T04:32:29;1.17;;;1.00;;
27566;SDS011;15006;48.584;9.186;2022-12-29T04:34:55;0.93;;;0.93;;
27566;SDS011;15006;48.584;9.186;2022-12-29T04:37:21;1.65;;;0.90;;
27566;SDS011;15006;48.584;9.186;2022-12-29T04:39:47;2.72;;;0.90;;
27566;SDS011;15006;48.584;9.186;2022-12-29T04:42:13;1.35;;;0.93;;
27566;SDS011;15006;48.584;9.186;2022-12-29T04:44:39;2.05;;;1.30;;
27566;SDS011;15006;48.584;9.186;2022-12-29T04:47:05;2.42;;;0.95;;
27566;SDS011;15006;48.584;9.186;2022-12-29T04:49:31;2.17;;;1.25;;
27566;SDS011;15006;48.584;9.186;2022-12-29T04:51:57;1.48;;;1.20;;
27566;SDS011;15006;48.584;9.186;2022-12-29T04:54:23;2.20;;;1.30;;
27566;SDS011;15006;48.584;9.186;2022-12-29T04:56:49;1.48;;;1.38;;
27566;SDS011;15006;48.584;9.186;2022-12-29T04:59:15;2.20;;;1.08;;
27566;SDS011;15006;48.584;9.186;2022-12-29T05:01:41;1.48;;;1.27;;
27566;SDS011;15006;48.584;9.186;2022-12-29T05:04:07;3.15;;;2.90;;
27566;SDS011;15006;48.584;9.186;2022-12-29T05:06:33;6.40;;;3.63;;
27566;SDS011;15006;48.584;9.186;2022-12-29T05:08:59;3.42;;;3.13;;
27566;SDS011;15006;48.584;9.186;2022-12-29T05:11:25;2.33;;;1.35;;
27566;SDS011;15006;48.584;9.186;2022-12-29T05:13:51;2.28;;;0.98;;
27566;SDS011;15006;48.584;9.186;2022-12-29T05:16:17;4.78;;;1.23;;
27566;SDS011;15006;48.584;9.186;2022-12-29T05:18:43;1.42;;;1.20;;
27566;SDS011;15006;48.584;9.186;2022-12-29T05:21:09;0.98;;;0.90;;
27566;SDS011;15006;48.584;9.186;2022-12-29T05:23:35;1.75;;;1.30;;
27566;SDS011;15006;48.584;9.186;2022-12-29T05:26:01;1.92;;;1.33;;
27566;SDS011;15006;48.584;9.186;2022-12-29T05:28:28;2.75;;;1.08;;
27566;SDS011;15006;48.584;9.186;2022-12-29T05:30:54;1.10;;;1.00;;
27566;SDS011;15006;48.584;9.186;2022-12-29T05:33:20;3.03;;;1.60;;
27566;SDS011;15006;48.584;9.186;2022-12-29T05:35:46;1.83;;;1.20;;
27566;SDS011;15006;48.584;9.186;2022-12-29T05:38:12;1.17;;;1.15;;
27566;SDS011;15006;48.584;9.186;2022-12-29T05:40:38;2.20;;;1.55;;
27566;SDS011;15006;48.584;9.186;2022-12-29T05:43:04;2.90;;;1.40;;
27566;SDS011;15006;48.584;9.186;2022-12-29T05:45:30;1.63;;;1.20;;
27566;SDS011;15006;48.584;9.186;2022-12-29T05:47:56;2.78;;;1.30;;
27566;SDS011;15006;48.584;9.186;2022-12-29T05:50:22;1.17;;;1.08;;
27566;SDS011;15006;48.584;9.186;2022-12-29T05:52:48;6.22;;;1.40;;
27566;SDS011;15006;48.584;9.186;2022-12-29T05:55:14;1.85;;;1.33;;
27566;SDS011;15006;48.584;9.186;2022-12-29T05:57:40;3.47;;;1.52;;
27566;SDS011;15006;48.584;9.186;2022-12-29T06:00:07;6.95;;;1.67;;
27566;SDS011;15006;48.584;9.186;2022-12-29T06:02:33;1.48;;;1.15;;
27566;SDS011;15006;48.584;9.186;2022-12-29T06:04:59;1.27;;;1.10;;
27566;SDS011;15006;48.584;9.186;2022-12-29T06:07:26;3.30;;;1.20;;
27566;SDS011;15006;48.584;9.186;2022-12-29T06:09:52;1.23;;;1.13;;
27566;SDS011;15006;48.584;9.186;2022-12-29T06:12:18;7.78;;;2.28;;
27566;SDS011;15006;48.584;9.186;2022-12-29T06:14:43;1.75;;;1.10;;
27566;SDS011;15006;48.584;9.186;2022-12-29T06:17:09;1.42;;;1.10;;
27566;SDS011;15006;48.584;9.186;2022-12-29T06:19:35;3.20;;;1.08;;
27566;SDS011;15006;48.584;9.186;2022-12-29T06:22:01;2.33;;;1.92;;
27566;SDS011;15006;48.584;9.186;2022-12-29T06:24:28;2.35;;;1.35;;
27566;SDS011;15006;48.584;9.186;2022-12-29T06:26:54;1.40;;;1.30;;
27566;SDS011;15006;48.584;9.186;2022-12-29T06:29:20;3.35;;;1.80;;
27566;SDS011;15006;48.584;9.186;2022-12-29T06:31:46;2.22;;;1.60;;
27566;SDS011;15006;48.584;9.186;2022-12-29T06:34:12;2.00;;;1.30;;
27566;SDS011;15006;48.584;9.186;2022-12-29T06:36:38;1.33;;;1.23;;
27566;SDS011;15006;48.584;9.186;2022-12-29T06:39:04;2.92;;;1.50;;
27566;SDS011;15006;48.584;9.186;2022-12-29T06:41:30;1.30;;;1.20;;
27566;SDS011;15006;48.584;9.186;2022-12-29T06:43:57;3.50;;;1.40;;
27566;SDS011;15006;48.584;9.186;2022-12-29T06:46:23;1.85;;;1.58;;
27566;SDS011;15006;48.584;9.186;2022-12-29T06:48:49;2.03;;;1.88;;
27566;SDS011;15006;48.584;9.186;2022-12-29T06:51:15;2.17;;;1.33;;
27566;SDS011;15006;48.584;9.186;2022-12-29T06:53:41;1.50;;;1.40;;
27566;SDS011;15006;48.584;9.186;2022-12-29T06:56:07;1.50;;;1.40;;
27566;SDS011;15006;48.584;9.186;2022-12-29T06:58:33;2.53;;;1.15;;
27566;SDS011;15006;48.584;9.186;2022-12-29T07:00:59;2.42;;;1.58;;
27566;SDS011;15006;48.584;9.186;2022-12-29T07:03:25;1.90;;;1.30;;
27566;SDS011;15006;48.584;9.186;2022-12-29T07:05:51;3.13;;;1.50;;
27566;SDS011;15006;48.584;9.186;2022-12-29T07:08:17;2.13;;;1.17;;
27566;SDS011;15006;48.584;9.186;2022-12-29T07:10:43;1.30;;;1.20;;
27566;SDS011;15006;48.584;9.186;2022-12-29T07:13:08;1.98;;;1.40;;
27566;SDS011;15006;48.584;9.186;2022-12-29T07:15:36;1.30;;;1.20;;
27566;SDS011;15006;48.584;9.186;2022-12-29T07:18:02;2.80;;;1.75;;
27566;SDS011;15006;48.584;9.186;2022-12-29T07:20:29;2.22;;;1.48;;
27566;SDS011;15006;48.584;9.186;2022-12-29T07:22:56;2.90;;;1.40;;
27566;SDS011;15006;48.584;9.186;2022-12-29T07:25:22;3.58;;;1.48;;
27566;SDS011;15006;48.584;9.186;2022-12-29T07:27:48;3.45;;;1.35;;
27566;SDS011;15006;48.584;9.186;2022-12-29T07:30:15;2.00;;;1.60;;
27566;SDS011;15006;48.584;9.186;2022-12-29T07:32:41;1.50;;;1.23;;
27566;SDS011;15006;48.584;9.186;2022-12-29T07:35:07;1.58;;;1.35;;
27566;SDS011;15006;48.584;9.186;2022-12-29T07:37:33;1.40;;;1.30;;
27566;SDS011;15006;48.584;9.186;2022-12-29T07:40:00;1.40;;;1.30;;
27566;SDS011;15006;48.584;9.186;2022-12-29T07:42:29;2.72;;;1.38;;
27566;SDS011;15006;48.584;9.186;2022-12-29T07:44:56;1.30;;;1.20;;
27566;SDS011;15006;48.584;9.186;2022-12-29T07:47:22;2.38;;;1.20;;
27566;SDS011;15006;48.584;9.186;2022-12-29T07:49:48;2.20;;;1.20;;
27566;SDS011;15006;48.584;9.186;2022-12-29T07:52:14;1.30;;;1.20;;
27566;SDS011;15006;48.584;9.186;2022-12-29T07:54:40;1.52;;;1.10;;
27566;SDS011;15006;48.584;9.186;2022-12-29T07:57:06;2.05;;;1.42;;
27566;SDS011;15006;48.584;9.186;2022-12-29T07:59:32;1.42;;;1.33;;
27566;SDS011;15006;48.584;9.186;2022-12-29T08:01:59;1.13;;;1.00;;
27566;SDS011;15006;48.584;9.186;2022-12-29T08:04:25;1.58;;;1.30;;
27566;SDS011;15006;48.584;9.186;2022-12-29T08:06:51;1.10;;;0.90;;
27566;SDS011;15006;48.584;9.186;2022-12-29T08:09:17;1.40;;;1.20;;
27566;SDS011;15006;48.584;9.186;2022-12-29T08:11:43;5.55;;;1.10;;
27566;SDS011;15006;48.584;9.186;2022-12-29T08:14:09;1.30;;;1.20;;
27566;SDS011;15006;48.584;9.186;2022-12-29T08:16:36;5.38;;;4.90;;
27566;SDS011;15006;48.584;9.186;2022-12-29T08:19:02;1.75;;;1.23;;
27566;SDS011;15006;48.584;9.186;2022-12-29T08:21:30;2.38;;;1.30;;
27566;SDS011;15006;48.584;9.186;2022-12-29T08:23:56;2.35;;;1.30;;
27566;SDS011;15006;48.584;9.186;2022-12-29T08:26:24;2.08;;;1.00;;
27566;SDS011;15006;48.584;9.186;2022-12-29T08:28:52;4.35;;;0.90;;
27566;SDS011;15006;48.584;9.186;2022-12-29T08:31:19;0.93;;;0.93;;
27566;SDS011;15006;48.584;9.186;2022-12-29T08:33:45;1.02;;;0.98;;
27566;SDS011;15006;48.584;9.186;2022-12-29T08:36:11;3.03;;;2.60;;
27566;SDS011;15006;48.584;9.186;2022-12-29T08:38:37;3.28;;;1.20;;
27566;SDS011;15006;48.584;9.186;2022-12-29T08:41:03;4.45;;;1.15;;
27566;SDS011;15006;48.584;9.186;2022-12-29T08:43:29;2.95;;;1.20;;
27566;SDS011;15006;48.584;9.186;2022-12-29T08:45:57;2.17;;;1.50;;
27566;SDS011;15006;48.584;9.186;2022-12-29T08:48:24;1.08;;;1.08;;
27566;SDS011;15006;48.584;9.186;2022-12-29T08:50:51;1.20;;;1.10;;
27566;SDS011;15006;48.584;9.186;2022-12-29T08:53:18;2.03;;;0.88;;
27566;SDS011;15006;48.584;9.186;2022-12-29T08:55:45;1.10;;;1.00;;
27566;SDS011;15006;48.584;9.186;2022-12-29T08:58:13;2.28;;;1.23;;
27566;SDS011;15006;48.584;9.186;2022-12-29T09:00:40;1.25;;;1.15;;
27566;SDS011;15006;48.584;9.186;2022-12-29T09:03:08;1.10;;;1.00;;
27566;SDS011;15006;48.584;9.186;2022-12-29T09:05:34;1.23;;;1.17;;
27566;SDS011;15006;48.584;9.186;2022-12-29T09:08:00;3.75;;;1.30;;
27566;SDS011;15006;48.584;9.186;2022-12-29T09:10:26;1.58;;;1.40;;
27566;SDS011;15006;48.584;9.186;2022-12-29T09:12:52;1.85;;;1.33;;
27566;SDS011;15006;48.584;9.186;2022-12-29T09:15:18;10.07;;;1.60;;
27566;SDS011;15006;48.584;9.186;2022-12-29T09:17:45;2.38;;;2.05;;
27566;SDS011;15006;48.584;9.186;2022-12-29T09:20:12;2.85;;;1.92;;
27566;SDS011;15006;48.584;9.186;2022-12-29T09:22:40;1.77;;;1.00;;
27566;SDS011;15006;48.584;9.186;2022-12-29T09:25:07;2.17;;;1.45;;
27566;SDS011;15006;48.584;9.186;2022-12-29T09:27:34;2.40;;;1.20;;
27566;SDS011;15006;48.584;9.186;2022-12-29T09:30:01;2.13;;;1.55;;
27566;SDS011;15006;48.584;9.186;2022-12-29T09:32:29;1.98;;;1.20;;
27566;SDS011;15006;48.584;9.186;2022-12-29T09:34:55;1.45;;;1.30;;
27566;SDS011;15006;48.584;9.186;2022-12-29T09:37:21;4.72;;;1.88;;
27566;SDS011;15006;48.584;9.186;2022-12-29T09:39:47;1.63;;;1.15;;
27566;SDS011;15006;48.584;9.186;2022-12-29T09:45:13;2.40;;;1.25;;
27566;SDS011;15006;48.584;9.186;2022-12-29T09:47:44;1.90;;;1.27;;
27566;SDS011;15006;48.584;9.186;2022-12-29T09:50:16;1.52;;;1.42;;
27566;SDS011;15006;48.584;9.186;2022-12-29T09:53:05;3.08;;;1.30;;
27566;SDS011;15006;48.584;9.186;2022-12-29T09:55:58;2.70;;;1.52;;
27566;SDS011;15006;48.584;9.186;2022-12-29T09:58:32;2.55;;;1.48;;
27566;SDS011;15006;48.584;9.186;2022-12-29T10:01:06;1.45;;;1.35;;
27566;SDS011;15006;48.584;9.186;2022-12-29T10:04:05;1.35;;;1.25;;
27566;SDS011;15006;48.584;9.186;2022-12-29T10:17:36;1.38;;;1.05;;
27566;SDS011;15006;48.584;9.186;2022-12-29T10:20:25;2.33;;;1.40;;
27566;SDS011;15006;48.584;9.186;2022-12-29T10:26:12;3.72;;;1.65;;
27566;SDS011;15006;48.584;9.186;2022-12-29T10:31:43;1.15;;;1.05;;
27566;SDS011;15006;48.584;9.186;2022-12-29T10:34:33;5.43;;;3.25;;
27566;SDS011;15006;48.584;9.186;2022-12-29T10:37:05;3.80;;;2.17;;
27566;SDS011;15006;48.584;9.186;2022-12-29T10:39:53;4.80;;;3.10;;
27566;SDS011;15006;48.584;9.186;2022-12-29T10:42:23;3.97;;;3.25;;
27566;SDS011;15006;48.584;9.186;2022-12-29T10:45:03;3.45;;;2.00;;
27566;SDS011;15006;48.584;9.186;2022-12-29T10:47:33;8.32;;;5.22;;
27566;SDS011;15006;48.584;9.186;2022-12-29T10:50:04;4.38;;;3.38;;
27566;SDS011;15006;48.584;9.186;2022-12-29T10:52:31;2.70;;;2.50;;
27566;SDS011;15006;48.584;9.186;2022-12-29T10:55:02;7.80;;;5.97;;
27566;SDS011;15006;48.584;9.186;2022-12-29T10:57:39;6.40;;;5.82;;
27566;SDS011;15006;48.584;9.186;2022-12-29T11:00:17;1.85;;;1.60;;
27566;SDS011;15006;48.584;9.186;2022-12-29T11:05:45;1.38;;;1.27;;
27566;SDS011;15006;48.584;9.186;2022-12-29T11:08:22;2.15;;;1.00;;
27566;SDS011;15006;48.584;9.186;2022-12-29T11:11:04;1.98;;;1.05;;
27566;SDS011;15006;48.584;9.186;2022-12-29T11:13:34;3.50;;;1.17;;
27566;SDS011;15006;48.584;9.186;2022-12-29T11:16:12;1.52;;;0.95;;
27566;SDS011;15006;48.584;9.186;2022-12-29T11:18:39;2.55;;;1.20;;
27566;SDS011;15006;48.584;9.186;2022-12-29T11:21:25;1.67;;;1.05;;
27566;SDS011;15006;48.584;9.186;2022-12-29T11:24:20;0.93;;;0.88;;
27566;SDS011;15006;48.584;9.186;2022-12-29T11:27:07;1.30;;;1.20;;
27566;SDS011;15006;48.584;9.186;2022-12-29T11:29:44;1.40;;;1.17;;
27566;SDS011;15006;48.584;9.186;2022-12-29T11:32:13;1.20;;;1.10;;
27566;SDS011;15006;48.584;9.186;2022-12-29T11:34:46;3.67;;;1.30;;
27566;SDS011;15006;48.584;9.186;2022-12-29T11:37:16;1.98;;;1.88;;
27566;SDS011;15006;48.584;9.186;2022-12-29T11:45:17;1.38;;;1.23;;
27566;SDS011;15006;48.584;9.186;2022-12-29T11:48:06;2.15;;;1.58;;
27566;SDS011;15006;48.584;9.186;2022-12-29T11:50:40;1.40;;;1.30;;
27566;SDS011;15006;48.584;9.186;2022-12-29T11:53:15;1.30;;;1.20;;
27566;SDS011;15006;48.584;9.186;2022-12-29T11:56:21;1.58;;;1.00;;
27566;SDS011;15006;48.584;9.186;2022-12-29T11:58:41;2.63;;;2.30;;
27566;SDS011;15006;48.584;9.186;2022-12-29T12:01:13;1.83;;;1.73;;
27566;SDS011;15006;48.584;9.186;2022-12-29T12:04:03;7.25;;;1.73;;
27566;SDS011;15006;48.584;9.186;2022-12-29T12:06:38;1.63;;;1.52;;
27566;SDS011;15006;48.584;9.186;2022-12-29T12:09:16;13.85;;;10.20;;
27566;SDS011;15006;48.584;9.186;2022-12-29T12:11:52;3.33;;;2.30;;
27566;SDS011;15006;48.584;9.186;2022-12-29T12:14:21;2.92;;;2.15;;
27566;SDS011;15006;48.584;9.186;2022-12-29T12:16:54;9.27;;;8.07;;
27566;SDS011;15006;48.584;9.186;2022-12-29T12:22:11;2.28;;;1.40;;
27566;SDS011;15006;48.584;9.186;2022-12-29T12:24:49;2.28;;;2.08;;
27566;SDS011;15006;48.584;9.186;2022-12-29T12:27:28;1.55;;;1.45;;
27566;SDS011;15006;48.584;9.186;2022-12-29T12:44:24;2.10;;;1.88;;
27566;SDS011;15006;48.584;9.186;2022-12-29T12:55:51;4.00;;;3.45;;
27566;SDS011;15006;48.584;9.186;2022-12-29T13:01:14;2.78;;;2.15;;
27566;SDS011;15006;48.584;9.186;2022-12-29T13:15:40;2.50;;;2.30;;
27566;SDS011;15006;48.584;9.186;2022-12-29T13:21:07;2.70;;;2.33;;
27566;SDS011;15006;48.584;9.186;2022-12-29T13:23:56;14.32;;;8.63;;
27566;SDS011;15006;48.584;9.186;2022-12-29T13:26:50;2.70;;;2.00;;
27566;SDS011;15006;48.584;9.186;2022-12-29T13:32:17;1.75;;;1.65;;
27566;SDS011;15006;48.584;9.186;2022-12-29T13:37:54;5.30;;;4.05;;
27566;SDS011;15006;48.584;9.186;2022-12-29T13:40:47;1.98;;;1.77;;
27566;SDS011;15006;48.584;9.186;2022-12-29T13:43:19;2.35;;;1.80;;
27566;SDS011;15006;48.584;9.186;2022-12-29T13:45:49;5.72;;;5.25;;
27566;SDS011;15006;48.584;9.186;2022-12-29T13:48:34;2.53;;;1.73;;
27566;SDS011;15006;48.584;9.186;2022-12-29T13:51:11;1.45;;;1.35;;
27566;SDS011;15006;48.584;9.186;2022-12-29T13:56:31;1.80;;;1.45;;
27566;SDS011;15006;48.584;9.186;2022-12-29T14:01:59;2.92;;;1.60;;
27566;SDS011;15006;48.584;9.186;2022-12-29T14:07:45;2.13;;;1.13;;
27566;SDS011;15006;48.584;9.186;2022-12-29T14:10:29;1.58;;;1.20;;
27566;SDS011;15006;48.584;9.186;2022-12-29T14:13:13;1.95;;;1.40;;
27566;SDS011;15006;48.584;9.186;2022-12-29T14:15:48;2.05;;;1.38;;
27566;SDS011;15006;48.584;9.186;2022-12-29T14:18:19;0.98;;;0.90;;
27566;SDS011;15006;48.584;9.186;2022-12-29T14:20:56;1.73;;;1.03;;
27566;SDS011;15006;48.584;9.186;2022-12-29T14:28:34;1.58;;;1.20;;
27566;SDS011;15006;48.584;9.186;2022-12-29T14:36:39;2.45;;;1.33;;
27566;SDS011;15006;48.584;9.186;2022-12-29T14:47:31;1.55;;;1.45;;
27566;SDS011;15006;48.584;9.186;2022-12-29T14:53:00;1.80;;;1.70;;
27566;SDS011;15006;48.584;9.186;2022-12-29T14:58:06;1.92;;;1.40;;
27566;SDS011;15006;48.584;9.186;2022-12-29T15:01:00;1.40;;;1.30;;
27566;SDS011;15006;48.584;9.186;2022-12-29T15:03:32;1.67;;;1.52;;
27566;SDS011;15006;48.584;9.186;2022-12-29T15:06:12;1.15;;;1.13;;
27566;SDS011;15006;48.584;9.186;2022-12-29T15:08:47;1.60;;;1.30;;
27566;SDS011;15006;48.584;9.186;2022-12-29T15:11:23;1.30;;;1.20;;
27566;SDS011;15006;48.584;9.186;2022-12-29T15:14:29;1.52;;;1.35;;
27566;SDS011;15006;48.584;9.186;2022-12-29T15:17:08;1.77;;;1.33;;
27566;SDS011;15006;48.584;9.186;2022-12-29T15:19:48;1.73;;;1.40;;
27566;SDS011;15006;48.584;9.186;2022-12-29T15:22:14;3.95;;;1.58;;
27566;SDS011;15006;48.584;9.186;2022-12-29T15:24:41;2.25;;;1.27;;
27566;SDS011;15006;48.584;9.186;2022-12-29T15:27:13;3.28;;;1.50;;
27566;SDS011;15006;48.584;9.186;2022-12-29T15:29:42;2.05;;;1.60;;
27566;SDS011;15006;48.584;9.186;2022-12-29T15:34:43;1.77;;;1.60;;
27566;SDS011;15006;48.584;9.186;2022-12-29T15:37:16;3.17;;;1.42;;
27566;SDS011;15006;48.584;9.186;2022-12-29T15:39:54;4.03;;;1.80;;
27566;SDS011;15006;48.584;9.186;2022-12-29T15:45:15;2.17;;;1.98;;
27566;SDS011;15006;48.584;9.186;2022-12-29T15:47:42;1.83;;;1.73;;
27566;SDS011;15006;48.584;9.186;2022-12-29T15:50:15;1.70;;;1.60;;
27566;SDS011;15006;48.584;9.186;2022-12-29T15:52:51;4.72;;;1.75;;
27566;SDS011;15006;48.584;9.186;2022-12-29T15:55:19;2.25;;;2.03;;
27566;SDS011;15006;48.584;9.186;2022-12-29T15:57:59;3.03;;;1.90;;
27566;SDS011;15006;48.584;9.186;2022-12-29T16:00:30;2.75;;;1.70;;
27566;SDS011;15006;48.584;9.186;2022-12-29T16:03:00;2.65;;;2.05;;
27566;SDS011;15006;48.584;9.186;2022-12-29T16:05:32;1.70;;;1.60;;
27566;SDS011;15006;48.584;9.186;2022-12-29T16:08:00;1.80;;;1.70;;
27566;SDS011;15006;48.584;9.186;2022-12-29T16:13:12;3.45;;;1.45;;
27566;SDS011;15006;48.584;9.186;2022-12-29T16:15:56;1.73;;;1.60;;
27566;SDS011;15006;48.584;9.186;2022-12-29T16:18:46;1.85;;;1.65;;
27566;SDS011;15006;48.584;9.186;2022-12-29T16:21:23;2.30;;;1.60;;
27566;SDS011;15006;48.584;9.186;2022-12-29T16:23:54;1.67;;;1.58;;
27566;SDS011;15006;48.584;9.186;2022-12-29T16:26:27;2.33;;;1.65;;
27566;SDS011;15006;48.584;9.186;2022-12-29T16:28:57;2.28;;;1.90;;
27566;SDS011;15006;48.584;9.186;2022-12-29T16:31:32;2.50;;;2.30;;
27566;SDS011;15006;48.584;9.186;2022-12-29T16:34:24;4.00;;;2.55;;
27566;SDS011;15006;48.584;9.186;2022-12-29T16:42:46;2.22;;;2.03;;
27566;SDS011;15006;48.584;9.186;2022-12-29T16:47:46;2.08;;;1.77;;
27566;SDS011;15006;48.584;9.186;2022-12-29T16:50:17;1.90;;;1.80;;
27566;SDS011;15006;48.584;9.186;2022-12-29T16:52:50;2.00;;;1.50;;
27566;SDS011;15006;48.584;9.186;2022-12-29T16:55:16;1.70;;;1.60;;
27566;SDS011;15006;48.584;9.186;2022-12-29T16:57:44;2.03;;;1.35;;
27566;SDS011;15006;48.584;9.186;2022-12-29T17:00:17;2.35;;;1.33;;
27566;SDS011;15006;48.584;9.186;2022-12-29T17:02:45;1.63;;;1.52;;
27566;SDS011;15006;48.584;9.186;2022-12-29T17:05:14;3.13;;;1.40;;
27566;SDS011;15006;48.584;9.186;2022-12-29T17:07:42;2.17;;;1.65;;
27566;SDS011;15006;48.584;9.186;2022-12-29T17:10:10;2.85;;;1.58;;
27566;SDS011;15006;48.584;9.186;2022-12-29T17:12:37;1.30;;;1.20;;
27566;SDS011;15006;48.584;9.186;2022-12-29T17:15:04;1.98;;;1.83;;
27566;SDS011;15006;48.584;9.186;2022-12-29T17:17:49;2.78;;;1.83;;
27566;SDS011;15006;48.584;9.186;2022-12-29T17:22:55;2.05;;;1.33;;
27566;SDS011;15006;48.584;9.186;2022-12-29T17:25:28;1.50;;;1.40;;
27566;SDS011;15006;48.584;9.186;2022-12-29T17:28:20;1.88;;;1.60;;
27566;SDS011;15006;48.584;9.186;2022-12-29T17:30:47;1.40;;;1.30;;
27566;SDS011;15006;48.584;9.186;2022-12-29T17:33:15;1.70;;;1.60;;
27566;SDS011;15006;48.584;9.186;2022-12-29T17:35:43;2.95;;;1.63;;
27566;SDS011;15006;48.584;9.186;2022-12-29T17:38:15;2.38;;;1.90;;
27566;SDS011;15006;48.584;9.186;2022-12-29T17:40:55;1.88;;;1.70;;
27566;SDS011;15006;48.584;9.186;2022-12-29T17:43:22;2.33;;;1.73;;
27566;SDS011;15006;48.584;9.186;2022-12-29T17:45:49;2.58;;;2.33;;
27566;SDS011;15006;48.584;9.186;2022-12-29T17:50:46;3.22;;;2.05;;
27566;SDS011;15006;48.584;9.186;2022-12-29T17:53:15;1.73;;;1.30;;
27566;SDS011;15006;48.584;9.186;2022-12-29T17:55:54;1.45;;;1.35;;
27566;SDS011;15006;48.584;9.186;2022-12-29T17:58:21;1.70;;;1.60;;
27566;SDS011;15006;48.584;9.186;2022-12-29T18:00:50;1.92;;;1.83;;
27566;SDS011;15006;48.584;9.186;2022-12-29T18:03:26;2.15;;;2.05;;
27566;SDS011;15006;48.584;9.186;2022-12-29T18:06:09;3.08;;;2.70;;
27566;SDS011;15006;48.584;9.186;2022-12-29T18:08:37;4.45;;;2.85;;